Flight Track Log - Related Links

Times and Time Zones

All times are in EDT time to prevent confusion due to time zone crossing. See the SKW6345 flight status page for this flight to view local times or setup timezone preferences in your user account.

Time Position Orientation Groundspeed Altitude Reporting Facility
EDT Latitude Longitude Course Direction KTS MPH feet Rate Location/Type
Thu 03:26:00 PM 45.3661 -111.8375 230° Southwest  Level Estimated
Thu 03:27:00 PM 45.2971 -111.9508 229° Southwest  Level Estimated
Thu 03:27:16 PM 45.8033 -111.2006 229° Southwest 190 219 5,500  Level Salt Lake Center
Thu 03:28:00 PM 45.2280 -112.0638 229° Southwest  Level Estimated
Thu 03:28:18 PM 45.7747 -111.2975 247° West 237 273 7,900  Level Salt Lake Center
Thu 03:29:00 PM 45.1534 -112.1853 229° Southwest  Level Estimated
Thu 03:29:20 PM 45.7433 -111.3869 243° Southwest 242 278 9,900  Level Salt Lake Center
Thu 03:30:00 PM 45.0787 -112.3064 229° Southwest  Level Estimated
Thu 03:30:22 PM 45.7289 -111.4906 259° West 261 300 11,700  Level Salt Lake Center
Thu 03:31:00 PM 45.0039 -112.4272 229° Southwest  Level Estimated
Thu 03:31:24 PM 45.7422 -111.6033 280° West 279 321 13,400  Level Salt Lake Center
Thu 03:32:00 PM 44.9290 -112.5477 229° Southwest  Level Estimated
Thu 03:32:26 PM 45.7617 -111.7189 284° West 295 339 15,200  Level Salt Lake Center
Thu 03:33:28 PM 45.7886 -111.8347 288° West 304 350 16,800 1,694 Climbing Salt Lake Center
Thu 03:34:30 PM 45.8197 -111.9769 287° West 310 357 18,700 1,645 Climbing Salt Lake Center
Thu 03:35:32 PM 45.8458 -112.0967 287° West 314 361 20,200 1,355 Climbing Salt Lake Center
Thu 03:36:34 PM 45.8364 -112.2167 264° West 321 369 21,500 1,210 Climbing Salt Lake Center
Thu 03:37:36 PM 45.7825 -112.3200 233° Southwest 324 373 22,700 1,065 Climbing Salt Lake Center
Thu 03:38:38 PM 45.7289 -112.4239 234° Southwest 327 376 23,700 871 Climbing Salt Lake Center
Thu 03:39:40 PM 45.6708 -112.5347 233° Southwest 343 395 24,500 823 Climbing Salt Lake Center
Thu 03:40:42 PM 45.5997 -112.6681 233° Southwest 351 404 25,400 720 Climbing Salt Lake Center
Thu 03:41:45 PM 45.5375 -112.7842 233° Southwest 366 421 26,000 576 Climbing Salt Lake Center
Thu 03:42:47 PM 45.4756 -112.9047 234° Southwest 376 433 26,600 581 Climbing Salt Lake Center
Thu 03:43:49 PM 45.4100 -113.0244 232° Southwest 382 440 27,200 581 Climbing Salt Lake Center
Thu 03:44:51 PM 45.3442 -113.1497 233° Southwest 388 447 27,800 629 Climbing Salt Lake Center
Thu 03:45:53 PM 45.2700 -113.2869 233° Southwest 392 451 28,500 629 Climbing Salt Lake Center
Thu 03:46:55 PM 45.2042 -113.4067 232° Southwest 400 460 29,100 581 Climbing Salt Lake Center
Thu 03:47:57 PM 45.1292 -113.5469 233° Southwest 402 463 29,700 532 Climbing Salt Lake Center
Thu 03:48:59 PM 45.0636 -113.6658 232° Southwest 402 463 30,200 581 Climbing Salt Lake Center
Thu 03:50:01 PM 44.9881 -113.8047 232° Southwest 400 460 30,900 629 Climbing Salt Lake Center
Thu 03:51:03 PM 44.9228 -113.9228 232° Southwest 400 460 31,500 532 Climbing Salt Lake Center
Thu 03:52:05 PM 44.8522 -114.0528 233° Southwest 396 456 32,000 242 Climbing Salt Lake Center
Thu 03:53:07 PM 44.7744 -114.1900 231° Southwest 401 461 32,000  Level Salt Lake Center
Thu 03:54:09 PM 44.7075 -114.3125 232° Southwest 409 471 32,000 290 Level Salt Lake Center
Thu 03:55:11 PM 44.6264 -114.4553 231° Southwest 416 479 32,600 677 Climbing Salt Lake Center
Thu 03:56:13 PM 44.5586 -114.5747 231° Southwest 409 471 33,400 677 Climbing Salt Lake Center
Thu 03:57:15 PM 44.4942 -114.6897 232° Southwest 397 457 34,000 290 Climbing Salt Lake Center
Thu 03:58:17 PM 44.4194 -114.8250 232° Southwest 392 451 34,000  Level Salt Lake Center
Thu 03:59:19 PM 44.3514 -114.9428 231° Southwest 401 461 34,000  Level Salt Lake Center
Thu 04:00:21 PM 44.2708 -115.0814 231° Southwest 408 470 34,000 97 Level Salt Lake Center
Thu 04:01:23 PM 44.2003 -115.2011 231° Southwest 415 478 34,200 339 Climbing Salt Lake Center
Thu 04:02:25 PM 44.1219 -115.3383 232° Southwest 404 465 34,700 480 Climbing Salt Lake Center
Thu 04:03:28 PM 44.0550 -115.4533 231° Southwest 400 460 35,200 432 Climbing Salt Lake Center
Thu 04:04:30 PM 43.9775 -115.5856 231° Southwest 395 455 35,600 339 Climbing Salt Lake Center
Thu 04:05:32 PM 43.9114 -115.6989 231° Southwest 394 453 35,900 194 Climbing Salt Lake Center
Thu 04:06:34 PM 43.8456 -115.8119 231° Southwest 394 453 36,000 48 Climbing Salt Lake Center
Thu 04:07:36 PM 43.7672 -115.9450 231° Southwest 399 459 36,000  Level Salt Lake Center
Thu 04:08:38 PM 43.6994 -116.0603 231° Southwest 403 464 36,000  Level Salt Lake Center
Thu 04:09:40 PM 43.6194 -116.1950 231° Southwest 404 465 36,000  Level Salt Lake Center
Thu 04:10:42 PM 43.5503 -116.3111 231° Southwest 408 470 36,000  Level Salt Lake Center
Thu 04:11:44 PM 43.4689 -116.4442 230° Southwest 405 466 36,000  Level Salt Lake Center
Thu 04:12:46 PM 43.4008 -116.5592 231° Southwest 404 465 36,000  Level Salt Lake Center
Thu 04:13:48 PM 43.3197 -116.6914 230° Southwest 405 466 36,000  Level Salt Lake Center
Thu 04:14:50 PM 43.2503 -116.8056 230° Southwest 408 470 36,000  Level Salt Lake Center
Thu 04:15:52 PM 43.1694 -116.9386 230° Southwest 406 467 36,000  Level Salt Lake Center
Thu 04:16:54 PM 43.1003 -117.0528 230° Southwest 407 468 36,000  Level Salt Lake Center
Thu 04:17:56 PM 43.0300 -117.1653 230° Southwest 407 468 36,000  Level Salt Lake Center
Thu 04:18:58 PM 42.9478 -117.2989 230° Southwest 410 472 36,000  Level Salt Lake Center
Thu 04:20:00 PM 42.8769 -117.4117 229° Southwest 410 472 36,000  Level Salt Lake Center
Thu 04:21:02 PM 42.7950 -117.5425 230° Southwest 406 467 36,000  Level Salt Lake Center
Thu 04:22:04 PM 42.7247 -117.6556 230° Southwest 408 470 36,000  Level Salt Lake Center
Thu 04:23:06 PM 42.6417 -117.7861 229° Southwest 407 468 36,000  Level Salt Lake Center
Thu 04:24:08 PM 42.5625 -117.8858 223° Southwest 406 467 36,000  Level Salt Lake Center
Thu 04:25:10 PM 42.4494 -117.9564 205° Southwest 402 463 36,000  Level Salt Lake Center
Thu 04:26:13 PM 42.3522 -118.0153 204° Southwest 400 460 36,000  Level Salt Lake Center
Thu 04:27:15 PM 42.2389 -118.0844 204° Southwest 400 460 36,000  Level Salt Lake Center
Thu 04:28:17 PM 42.1472 -118.1408 205° Southwest 396 456 36,000  Level Salt Lake Center
Thu 04:29:19 PM 42.0333 -118.2086 204° Southwest 401 461 36,000  Level Salt Lake Center
Thu 04:30:21 PM 41.9364 -118.2675 204° Southwest 400 460 36,000  Level Salt Lake Center
Thu 04:31:23 PM 41.8225 -118.3353 204° Southwest 401 461 36,000  Level Salt Lake Center
Thu 04:32:25 PM 41.7253 -118.3939 204° Southwest 401 461 36,000  Level Salt Lake Center
Thu 04:33:27 PM 41.6119 -118.4606 204° Southwest 398 458 36,000  Level Salt Lake Center
Thu 04:34:29 PM 41.5156 -118.5186 204° Southwest 398 458 36,000  Level Salt Lake Center
Thu 04:35:31 PM 41.4019 -118.5847 204° Southwest 398 458 36,000  Level Salt Lake Center
Thu 04:36:33 PM 41.3042 -118.6431 204° Southwest 400 460 36,000  Level Salt Lake Center
Thu 04:37:35 PM 41.1897 -118.7111 204° Southwest 403 464 36,000  Level Salt Lake Center
Thu 04:38:37 PM 41.0914 -118.7678 203° Southwest 401 461 36,000  Level Salt Lake Center
Thu 04:39:39 PM 40.9783 -118.8344 204° Southwest 399 459 36,000  Level Salt Lake Center
Thu 04:40:41 PM 40.8803 -118.8892 203° Southwest 399 459 36,000  Level Salt Lake Center
Thu 04:41:43 PM 40.7828 -118.9467 204° Southwest 400 460 36,000  Level Salt Lake Center
Thu 04:42:45 PM 40.6806 -119.0411 215° Southwest 405 466 36,000  Level Salt Lake Center
Thu 04:43:47 PM 40.6042 -119.1644 231° Southwest 413 475 36,000  Level Oakland Center
Thu 04:44:49 PM 40.5314 -119.2753 229° Southwest 405 466 36,000  Level Oakland Center
Thu 04:45:50 PM 40.4606 -119.3861 230° Southwest 399 459 36,000  Level Oakland Center
Thu 04:46:52 PM 40.3892 -119.4969 230° Southwest 400 460 36,000  Level Oakland Center
Thu 04:47:53 PM 40.3186 -119.6061 230° Southwest 395 455 36,000  Level Oakland Center
Thu 04:48:55 PM 40.2456 -119.7144 229° Southwest 398 458 36,000  Level Oakland Center
Thu 04:49:56 PM 40.1633 -119.8428 230° Southwest 385 443 36,000  Level Oakland Center
Thu 04:50:58 PM 40.0917 -119.9506 229° Southwest 391 450 36,000  Level Oakland Center
Thu 04:52:00 PM 40.0214 -120.0583 230° Southwest 391 450 36,000  Level Oakland Center
Thu 04:53:01 PM 39.9483 -120.1661 229° Southwest 386 444 36,000 -488 Level Oakland Center
Thu 04:54:03 PM 39.8756 -120.2742 229° Southwest 394 453 35,000 -488 Descending Oakland Center
Thu 04:55:04 PM 39.8011 -120.3875 229° Southwest 408 470 35,000  Level Oakland Center
Thu 04:56:06 PM 39.7264 -120.4994 229° Southwest 409 471 35,000  Level Oakland Center
Thu 04:57:07 PM 39.6542 -120.6075 229° Southwest 398 458 35,000  Level Oakland Center
Thu 04:58:09 PM 39.5669 -120.7358 229° Southwest 396 456 35,000  Level Oakland Center
Thu 04:59:11 PM 39.4942 -120.8431 229° Southwest 396 456 35,000  Level Oakland Center
Thu 05:00:12 PM 39.4219 -120.9489 229° Southwest 393 452 35,000  Level Oakland Center
Thu 05:01:14 PM 39.3511 -121.0550 229° Southwest 391 450 35,000  Level Oakland Center
Thu 05:02:16 PM 39.2792 -121.1611 229° Southwest 392 451 35,000  Level Oakland Center
Thu 05:03:17 PM 39.2067 -121.2664 228° Southwest 393 452 35,000  Level Oakland Center
Thu 05:04:19 PM 39.1339 -121.3714 228° Southwest 394 453 35,000  Level Oakland Center
Thu 05:05:20 PM 39.0464 -121.5003 229° Southwest 399 459 35,000  Level Oakland Center
Thu 05:06:22 PM 38.9725 -121.6064 228° Southwest 400 460 35,000  Level Oakland Center
Thu 05:07:24 PM 38.8972 -121.7131 228° Southwest 403 464 35,000  Level Oakland Center
Thu 05:08:25 PM 38.8233 -121.8208 229° Southwest 406 467 35,000  Level Oakland Center
Thu 05:09:27 PM 38.7483 -121.9258 228° Southwest 403 464 35,000  Level Oakland Center
Thu 05:10:28 PM 38.6703 -122.0372 228° Southwest 401 461 35,000  Level Oakland Center
Thu 05:11:30 PM 38.5958 -122.1436 228° Southwest 402 463 35,000  Level Oakland Center
Thu 05:12:31 PM 38.5225 -122.2467 228° Southwest 395 455 35,000 -683 Level Oakland Center
Thu 05:13:33 PM 38.4481 -122.3517 228° Southwest 398 458 33,600 -2,585 Descending Oakland Center
Thu 05:14:34 PM 38.3611 -122.4764 228° Southwest 396 456 29,700 -3,512 Descending Oakland Center
Thu 05:15:36 PM 38.2883 -122.5775 227° Southwest 392 451 26,400 -3,366 Descending Oakland Center
Thu 05:16:37 PM 38.2100 -122.6619 220° Southwest 372 428 22,800 -3,805 Descending Oakland Center
Thu 05:17:39 PM 38.1092 -122.6697 183° South 360 414 18,600 -3,805 Descending Oakland Center
Thu 05:18:40 PM 38.0147 -122.6717 181° South 347 399 15,000 -3,610 Descending Oakland Center
Thu 05:19:42 PM 37.9081 -122.6697 179° South 334 384 11,200 -1,951 Descending Oakland Center
Thu 05:20:43 PM 37.8442 -122.6125 145° Southeast 298 343 11,000 -104 Descending Oakland Center
Thu 05:21:37 PM 37.7833 -122.5500 141° Southeast 294 338 11,000  Level Northern Cal TRACON
Thu 05:22:43 PM 37.7333 -122.4833 133° Southeast 237 273 11,000  Level Northern Cal TRACON
Thu 05:23:43 PM 37.6833 -122.4333 142° Southeast 235 270 11,000  Level Northern Cal TRACON
Thu 05:24:43 PM 37.6333 -122.3833 142° Southeast 234 269 11,000 -400 Level Northern Cal TRACON
Thu 05:25:43 PM 37.5667 -122.3500 158° South 237 273 10,200 -950 Descending Northern Cal TRACON
Thu 05:26:43 PM 37.5000 -122.3167 158° South 232 267 9,100 -650 Descending Northern Cal TRACON
Thu 05:27:43 PM 37.4500 -122.2833 152° Southeast 240 276 8,900 -800 Descending Northern Cal TRACON
Thu 05:28:43 PM 37.4167 -122.2000 117° Southeast 235 270 7,500 -1,400 Descending Northern Cal TRACON
Thu 05:29:43 PM 37.4500 -122.1500 50° Northeast 229 264 6,100 -1,316 Descending Northern Cal TRACON
Thu 05:30:37 PM 37.5000 -122.1500 360° North 198 228 5,000 -1,250 Descending Northern Cal TRACON
Thu 05:31:43 PM 37.5333 -122.1833 322° Northwest 199 229 3,600 -1,286 Descending Northern Cal TRACON
Thu 05:32:43 PM 37.5667 -122.2500 302° West 190 219 2,300 -1,100 Descending Northern Cal TRACON
Thu 05:33:43 PM 37.5833 -122.3000 293° West 141 162 1,400 -893 Descending Northern Cal TRACON
Thu 05:34:44 PM 37.6000 -122.3333 302° West 125 144 500 -885 Descending Northern Cal TRACON

Login

Don't have an account? Register now (free) for customized features, flight alerts, and more!